Time;durP1;ratioP1;P1;durP2;ratioP2;P2;SDS_P1;SDS_P2;PMS_P1;PMS_P2;Temp;Humidity;BMP_temperature;BMP_pressure;BME280_temperature;BME280_humidity;BME280_pressure;Samples;Min_cycle;Max_cycle;Signal;HPM_P1;HPM_P2
2022/07/28 00:02:04;;;;;;;8.00;1.90;;;;;;;13.13;89.53;99903.71;105179;1274;69572;-73
2022/07/28 00:04:52;;;;;;;10.40;1.80;;;;;;;13.12;89.63;99905.23;104944;1271;74441;-73
2022/07/28 00:07:41;;;;;;;7.60;1.50;;;;;;;13.09;89.88;99913.83;104937;1271;59545;-74
2022/07/28 00:10:30;;;;;;;9.30;1.80;;;;;;;13.08;90.12;99919.98;105347;1272;60611;-75
2022/07/28 00:13:19;;;;;;;9.00;1.70;;;;;;;13.08;90.60;99923.35;105207;1272;71977;-75
2022/07/28 00:16:07;;;;;;;6.00;1.80;;;;;;;13.09;90.64;99924.87;104904;1272;67728;-73
2022/07/28 00:18:55;;;;;;;9.90;1.80;;;;;;;13.10;90.52;99929.76;104962;1273;72739;-73
2022/07/28 00:21:43;;;;;;;7.00;2.00;;;;;;;13.11;90.53;99930.61;104937;1271;59694;-72
2022/07/28 00:24:31;;;;;;;6.00;1.60;;;;;;;13.12;90.59;99928.14;104786;1273;59642;-72
2022/07/28 00:27:21;;;;;;;7.60;1.70;;;;;;;13.14;90.79;99924.98;104950;1271;73373;-72
2022/07/28 00:30:10;;;;;;;9.50;1.90;;;;;;;13.16;91.12;99925.69;104963;1271;67411;-74
2022/07/28 00:32:58;;;;;;;8.00;2.00;;;;;;;13.18;91.12;99925.32;105222;1272;73444;-73
2022/07/28 00:35:46;;;;;;;10.20;2.30;;;;;;;13.20;90.72;99928.84;104829;1271;60930;-74
2022/07/28 00:38:36;;;;;;;6.50;2.20;;;;;;;13.23;90.63;99930.22;105358;1271;61522;-73
2022/07/28 00:41:27;;;;;;;7.10;1.90;;;;;;;13.24;90.78;99925.09;105021;1273;73342;-73
2022/07/28 00:44:15;;;;;;;7.50;1.90;;;;;;;13.27;90.74;99926.26;105071;1271;69588;-72
2022/07/28 00:47:03;;;;;;;10.50;2.20;;;;;;;13.27;91.02;99927.09;104982;1271;74152;-73
2022/07/28 00:49:52;;;;;;;8.60;1.90;;;;;;;13.28;91.00;99932.89;104982;1271;59561;-73
2022/07/28 00:52:40;;;;;;;9.10;1.70;;;;;;;13.29;90.75;99928.73;104983;1272;61404;-75
2022/07/28 00:55:28;;;;;;;10.20;2.20;;;;;;;13.31;90.93;99930.92;105004;1271;74430;-75
2022/07/28 00:58:16;;;;;;;6.30;1.60;;;;;;;13.33;90.92;99921.31;105175;1271;69596;-73
2022/07/28 01:01:07;;;;;;;8.50;2.00;;;;;;;13.33;90.77;99923.05;105228;1271;72852;-73
2022/07/28 01:04:00;;;;;;;8.40;1.80;;;;;;;13.32;90.93;99923.48;104814;1273;61230;-73
2022/07/28 01:07:12;;;;;;;7.80;1.90;;;;;;;13.33;90.73;99918.23;105000;1271;60568;-73
2022/07/28 01:10:18;;;;;;;8.90;1.90;;;;;;;13.35;90.85;99922.73;105239;1271;71929;-73
2022/07/28 01:13:49;;;;;;;8.10;2.00;;;;;;;13.35;90.96;99910.28;105136;1271;66851;-73
2022/07/28 01:17:03;;;;;;;8.60;1.50;;;;;;;13.33;91.04;99907.77;104982;1273;74537;-72
2022/07/28 01:20:10;;;;;;;7.60;1.80;;;;;;;13.28;91.44;99907.46;105055;1271;59826;-75
2022/07/28 01:23:20;;;;;;;7.60;1.60;;;;;;;13.24;91.64;99905.16;104967;1271;61054;-73
2022/07/28 01:26:30;;;;;;;8.20;1.70;;;;;;;13.21;92.72;99900.10;105060;1271;73238;-73
2022/07/28 01:29:56;;;;;;;8.40;1.90;;;;;;;13.18;92.57;99902.16;104781;1273;67961;-74
2022/07/28 01:32:55;;;;;;;9.80;2.00;;;;;;;13.18;92.77;99901.13;105147;1272;72507;-72
2022/07/28 01:35:50;;;;;;;7.60;1.60;;;;;;;13.18;93.29;99899.34;105289;1271;59750;-73
2022/07/28 01:38:39;;;;;;;8.40;1.70;;;;;;;13.18;93.57;99902.75;105061;1271;60462;-74
2022/07/28 01:41:31;;;;;;;8.00;1.90;;;;;;;13.19;93.69;99901.13;105064;1273;74284;-72
2022/07/28 01:44:23;;;;;;;8.60;1.70;;;;;;;13.22;94.06;99905.02;104942;1273;69416;-72
2022/07/28 01:47:13;;;;;;;9.30;2.20;;;;;;;13.25;93.96;99909.85;105196;1271;70774;-71
2022/07/28 01:50:07;;;;;;;7.30;1.80;;;;;;;13.29;94.11;99910.41;105028;1271;61201;-71
2022/07/28 01:52:56;;;;;;;9.50;1.80;;;;;;;13.31;94.16;99902.80;104966;1271;59530;-73
2022/07/28 01:55:48;;;;;;;9.10;1.70;;;;;;;13.33;93.81;99901.84;104962;1271;74826;-74
2022/07/28 01:58:37;;;;;;;10.30;1.80;;;;;;;13.35;94.17;99906.38;105025;1271;67054;-71
2022/07/28 02:01:26;;;;;;;9.30;1.80;;;;;;;13.35;94.05;99903.87;105055;1271;73756;-72
2022/07/28 02:04:19;;;;;;;6.70;1.60;;;;;;;13.36;94.54;99904.83;104888;1271;61369;-72
2022/07/28 02:07:09;;;;;;;7.80;2.00;;;;;;;13.36;94.50;99900.91;105088;1272;61080;-73
2022/07/28 02:09:59;;;;;;;10.00;1.90;;;;;;;13.37;94.41;99902.45;105075;1271;74947;-75
2022/07/28 02:12:51;;;;;;;6.80;1.60;;;;;;;13.37;94.36;99902.04;105434;1272;66858;-74
2022/07/28 02:15:40;;;;;;;9.50;2.30;;;;;;;13.37;94.31;99905.13;104955;1271;72015;-73
2022/07/28 02:18:30;;;;;;;6.10;1.70;;;;;;;13.37;94.42;99909.02;105186;1271;60517;-73
2022/07/28 02:21:20;;;;;;;6.80;1.40;;;;;;;13.37;94.77;99913.97;104946;1271;60551;-72
2022/07/28 02:24:11;;;;;;;8.70;1.90;;;;;;;13.37;94.87;99912.45;105125;1272;72715;-74
2022/07/28 02:27:19;;;;;;;6.50;1.70;;;;;;;13.37;94.87;99916.53;105169;1274;68628;-73
2022/07/28 02:30:13;;;;;;;7.80;2.00;;;;;;;13.38;94.83;99916.42;105000;1271;72989;-73
2022/07/28 02:33:19;;;;;;;7.30;1.70;;;;;;;13.40;95.00;99916.08;105067;1271;61343;-73
2022/07/28 02:36:33;;;;;;;7.90;1.60;;;;;;;13.40;95.04;99915.13;105874;1271;60847;-71
2022/07/28 02:39:29;;;;;;;11.80;1.90;;;;;;;13.40;95.17;99917.67;105785;1274;73679;-74
2022/07/28 02:42:29;;;;;;;10.80;2.00;;;;;;;13.40;95.46;99913.04;105375;1271;69160;-74
2022/07/28 02:45:21;;;;;;;8.10;1.60;;;;;;;13.41;95.06;99914.50;104987;1271;74477;-74
2022/07/28 02:48:17;;;;;;;8.70;2.10;;;;;;;13.42;95.12;99917.45;104920;1272;60241;-74
2022/07/28 02:51:07;;;;;;;9.80;1.60;;;;;;;13.43;95.35;99913.76;105067;1272;61892;-72
2022/07/28 02:53:59;;;;;;;8.00;2.00;;;;;;;13.43;95.16;99910.05;104897;1271;72680;-74
2022/07/28 02:56:49;;;;;;;6.70;1.60;;;;;;;13.44;95.23;99910.33;104937;1271;69734;-73
2022/07/28 02:59:42;;;;;;;7.90;1.80;;;;;;;13.44;95.48;99915.29;104783;1272;73546;-73
2022/07/28 03:02:32;;;;;;;7.70;1.70;;;;;;;13.46;95.60;99912.44;104904;1273;60036;-72
2022/07/28 03:05:21;;;;;;;8.90;1.80;;;;;;;13.49;95.50;99912.92;104924;1273;61174;-74
2022/07/28 03:08:11;;;;;;;12.10;1.80;;;;;;;13.51;95.70;99911.64;104959;1271;74177;-74
2022/07/28 03:11:10;;;;;;;7.60;1.90;;;;;;;13.54;95.76;99914.19;105006;1271;69412;-74
2022/07/28 03:13:58;;;;;;;7.20;1.60;;;;;;;13.57;95.92;99913.59;105121;1271;72396;-74
2022/07/28 03:16:48;;;;;;;7.90;2.30;;;;;;;13.59;96.24;99915.17;105268;1271;59698;-73
2022/07/28 03:19:42;;;;;;;9.20;1.80;;;;;;;13.63;95.97;99920.48;105007;1271;60217;-75
2022/07/28 03:22:30;;;;;;;8.70;1.70;;;;;;;13.68;95.94;99923.31;105012;1271;73876;-74
2022/07/28 03:25:47;;;;;;;8.70;2.00;;;;;;;13.72;95.41;99928.58;105164;1271;66760;-73
2022/07/28 03:28:36;;;;;;;8.40;1.90;;;;;;;13.79;95.46;99930.79;105107;1271;74468;-73
2022/07/28 03:31:27;;;;;;;8.50;2.10;;;;;;;13.86;95.09;99929.09;105320;1271;60403;-74
2022/07/28 03:34:15;;;;;;;10.70;2.20;;;;;;;13.90;95.09;99934.44;105035;1273;62113;-80
2022/07/28 03:37:15;;;;;;;8.10;1.80;;;;;;;13.91;94.78;99930.17;105251;1271;72041;-79
2022/07/28 03:40:09;;;;;;;6.50;1.90;;;;;;;14.01;94.30;99943.77;105313;1271;67072;-79
2022/07/28 03:43:02;;;;;;;9.80;2.00;;;;;;;14.06;94.10;99944.75;104973;1271;73352;-78
2022/07/28 03:45:52;;;;;;;7.80;2.00;;;;;;;14.10;93.93;99943.25;105158;1271;60333;-80
2022/07/28 03:48:40;;;;;;;9.20;1.90;;;;;;;14.15;93.71;99942.42;105043;1271;60487;-81
2022/07/28 03:51:28;;;;;;;7.80;1.80;;;;;;;14.22;93.67;99943.92;105033;1271;74551;-78
2022/07/28 03:54:16;;;;;;;10.90;1.80;;;;;;;14.32;93.57;99939.38;105057;1271;67360;-80
2022/07/28 03:57:04;;;;;;;9.00;2.10;;;;;;;14.44;93.00;99937.91;105090;1271;74285;-79
2022/07/28 03:59:52;;;;;;;9.00;2.70;;;;;;;14.58;92.85;99937.29;105160;1271;59830;-78
2022/07/28 04:02:45;;;;;;;8.70;1.80;;;;;;;14.71;92.14;99937.83;105065;1271;61088;-77
2022/07/28 04:05:33;;;;;;;8.50;1.80;;;;;;;14.84;92.03;99937.80;105078;1271;72043;-78
2022/07/28 04:08:21;;;;;;;8.00;1.70;;;;;;;15.03;91.56;99941.36;105088;1271;68498;-77
2022/07/28 04:11:09;;;;;;;9.50;2.00;;;;;;;15.16;90.75;99940.56;105140;1271;72399;-81
2022/07/28 04:13:57;;;;;;;10.40;1.90;;;;;;;15.27;90.10;99945.96;105374;1271;59782;-80
2022/07/28 04:16:45;;;;;;;9.90;2.10;;;;;;;15.42;90.07;99946.63;105112;1271;60500;-80
2022/07/28 04:19:33;;;;;;;11.30;3.50;;;;;;;15.54;89.24;99952.00;105210;1272;73239;-80
2022/07/28 04:22:22;;;;;;;11.60;2.10;;;;;;;15.61;88.60;99951.30;105167;1271;68496;-79
2022/07/28 04:25:13;;;;;;;8.90;2.20;;;;;;;15.69;87.94;99958.27;105114;1271;73410;-78
2022/07/28 04:28:02;;;;;;;8.70;2.00;;;;;;;15.67;87.44;99957.91;105054;1271;59576;-79
2022/07/28 04:30:52;;;;;;;7.80;1.70;;;;;;;15.68;87.41;99960.13;105185;1271;62050;-79
2022/07/28 04:33:41;;;;;;;9.20;1.80;;;;;;;15.67;87.08;99961.46;105118;1271;74856;-79
2022/07/28 04:36:31;;;;;;;10.60;1.80;;;;;;;15.67;87.17;99967.73;105328;1271;67435;-81
2022/07/28 04:39:19;;;;;;;9.20;1.90;;;;;;;15.66;86.79;99971.38;105051;1271;72934;-81
2022/07/28 04:42:07;;;;;;;8.90;2.20;;;;;;;15.65;86.47;99973.11;105094;1271;59803;-78
2022/07/28 04:44:55;;;;;;;9.80;2.30;;;;;;;15.61;86.43;99975.30;105386;1271;60982;-78
2022/07/28 04:47:43;;;;;;;10.90;2.50;;;;;;;15.57;86.41;99974.99;105081;1271;73787;-79
2022/07/28 04:50:31;;;;;;;9.30;1.60;;;;;;;15.53;86.62;99980.00;105106;1271;68050;-79
2022/07/28 04:53:21;;;;;;;10.20;1.90;;;;;;;15.50;86.60;99986.23;105116;1271;71931;-79
2022/07/28 04:56:09;;;;;;;11.70;2.40;;;;;;;15.48;86.86;99981.08;104997;1271;61191;-78
2022/07/28 04:58:58;;;;;;;9.70;2.00;;;;;;;15.47;86.52;99974.02;105098;1271;60495;-78
2022/07/28 05:01:45;;;;;;;12.10;2.30;;;;;;;15.47;86.89;99978.23;105313;1271;71353;-76
2022/07/28 05:04:34;;;;;;;9.40;1.90;;;;;;;15.50;86.57;99974.56;105145;1271;69370;-79
2022/07/28 05:07:23;;;;;;;11.00;2.20;;;;;;;15.52;86.48;99972.77;105448;1271;74493;-79
2022/07/28 05:10:11;;;;;;;8.70;1.90;;;;;;;15.51;86.39;99974.27;105268;1271;59700;-78
2022/07/28 05:13:05;;;;;;;13.60;2.10;;;;;;;15.53;86.35;99975.63;105309;1271;60433;-79
2022/07/28 05:15:54;;;;;;;7.40;1.60;;;;;;;15.49;86.10;99980.02;105138;1271;75371;-80
2022/07/28 05:18:41;;;;;;;9.90;2.00;;;;;;;15.48;86.13;99985.81;105082;1271;69683;-78
2022/07/28 05:21:32;;;;;;;8.00;2.00;;;;;;;15.50;86.00;99985.96;105121;1271;71640;-79
2022/07/28 05:24:20;;;;;;;8.80;1.70;;;;;;;15.52;86.20;99990.85;105042;1271;266700;-80
2022/07/28 05:27:10;;;;;;;12.10;2.00;;;;;;;15.53;85.99;99995.77;104997;1271;62113;-78
2022/07/28 05:29:58;;;;;;;8.40;2.20;;;;;;;15.52;86.00;99997.11;105168;1271;71982;-80
2022/07/28 05:32:49;;;;;;;10.00;2.30;;;;;;;15.53;85.95;100002.23;105089;1271;68374;-81
2022/07/28 05:35:38;;;;;;;10.50;2.00;;;;;;;15.56;85.94;100007.10;105174;1271;72840;-81
2022/07/28 05:38:27;;;;;;;10.70;2.00;;;;;;;15.62;85.76;100004.00;105038;1271;59739;-79
2022/07/28 05:41:15;;;;;;;9.70;2.20;;;;;;;15.68;85.38;100013.61;105172;1271;61874;-81
2022/07/28 05:44:03;;;;;;;14.90;5.80;;;;;;;15.72;85.15;100014.60;105024;1271;73366;-82
2022/07/28 05:46:51;;;;;;;9.00;1.80;;;;;;;15.78;84.69;100015.77;105500;1271;69678;-80
2022/07/28 05:49:39;;;;;;;9.00;2.20;;;;;;;15.84;84.21;100022.75;106760;1271;71615;-80
2022/07/28 05:52:27;;;;;;;13.30;3.90;;;;;;;15.90;84.05;100024.44;106340;1271;59634;-79
2022/07/28 05:55:16;;;;;;;9.30;1.80;;;;;;;16.01;83.37;100021.58;106059;1271;59514;-79
2022/07/28 05:58:04;;;;;;;9.10;2.00;;;;;;;16.10;82.49;100025.10;105909;1271;72727;-79
2022/07/28 06:00:58;;;;;;;11.40;2.00;;;;;;;16.19;82.35;100014.73;105509;1273;67897;-80
2022/07/28 06:03:51;;;;;;;11.70;1.80;;;;;;;16.40;81.00;100024.23;105241;1271;72710;-79
2022/07/28 06:06:59;;;;;;;12.90;2.20;;;;;;;16.59;80.35;100024.98;105006;1271;59710;-78
2022/07/28 06:09:47;;;;;;;9.60;2.20;;;;;;;16.79;79.16;100023.95;105378;1271;62084;-80
2022/07/28 06:12:41;;;;;;;10.80;2.40;;;;;;;17.01;77.97;100030.11;105493;1271;72416;-79
2022/07/28 06:15:29;;;;;;;9.70;2.40;;;;;;;17.17;76.59;100039.59;105142;1271;70040;-78
2022/07/28 06:18:19;;;;;;;9.30;1.80;;;;;;;17.29;76.17;100040.23;105167;1271;71710;-79
2022/07/28 06:21:07;;;;;;;8.30;2.00;;;;;;;17.43;75.60;100043.22;104959;1271;59762;-77
2022/07/28 06:23:54;;;;;;;7.30;1.60;;;;;;;17.61;74.41;100042.29;105137;1271;61040;-77
2022/07/28 06:26:45;;;;;;;9.20;1.80;;;;;;;17.71;73.28;100053.77;105127;1271;73705;-78
2022/07/28 06:29:34;;;;;;;10.40;1.90;;;;;;;17.83;73.27;100054.36;105285;1271;68882;-79
2022/07/28 06:32:22;;;;;;;7.80;1.50;;;;;;;18.07;72.46;100059.14;105076;1271;74408;-79
2022/07/28 06:35:13;;;;;;;13.30;2.10;;;;;;;18.43;70.95;100060.47;105361;1271;60111;-78
2022/07/28 06:38:01;;;;;;;9.60;1.70;;;;;;;18.77;68.78;100063.83;105090;1271;62064;-77
2022/07/28 06:40:49;;;;;;;8.40;1.40;;;;;;;19.05;67.40;100064.88;104945;1271;72100;-80
2022/07/28 06:43:37;;;;;;;8.30;1.50;;;;;;;19.26;65.13;100058.35;105166;1271;68556;-80
2022/07/28 06:46:25;;;;;;;7.00;1.50;;;;;;;19.68;64.31;100057.49;105462;1271;71856;-79
2022/07/28 06:49:14;;;;;;;7.70;1.40;;;;;;;20.00;62.67;100063.30;104976;1271;59657;-78
2022/07/28 06:52:03;;;;;;;10.20;1.60;;;;;;;20.14;61.51;100067.48;105062;1271;59647;-78
2022/07/28 06:54:53;;;;;;;8.00;1.50;;;;;;;20.21;61.26;100066.86;104928;1274;73712;-79
2022/07/28 06:57:45;;;;;;;9.60;1.90;;;;;;;20.48;61.32;100072.95;104795;1277;68289;-78
2022/07/28 07:00:34;;;;;;;9.70;1.60;;;;;;;20.64;59.33;100075.64;104920;1274;74052;-77
2022/07/28 07:03:22;;;;;;;8.70;1.30;;;;;;;20.50;59.38;100075.27;105031;1272;59733;-79
2022/07/28 07:06:10;;;;;;;8.70;1.30;;;;;;;20.60;59.44;100080.73;104987;1271;59611;-76
2022/07/28 07:08:59;;;;;;;7.90;1.40;;;;;;;20.78;58.74;100080.95;105024;1271;73051;-79
2022/07/28 07:11:47;;;;;;;8.50;1.80;;;;;;;20.86;58.00;100082.48;105255;1271;67978;-78
2022/07/28 07:14:36;;;;;;;9.00;1.30;;;;;;;20.82;57.73;100082.84;105030;1271;74443;-78
2022/07/28 07:17:24;;;;;;;9.60;1.80;;;;;;;20.80;57.83;100082.48;104868;1274;59730;-79
2022/07/28 07:20:13;;;;;;;7.40;1.50;;;;;;;20.92;58.19;100089.72;105535;1271;61617;-75
2022/07/28 07:23:03;;;;;;;8.10;1.30;;;;;;;21.34;57.12;100086.81;105173;1271;71682;-75
2022/07/28 07:25:51;;;;;;;7.00;1.30;;;;;;;21.90;56.08;100086.17;105506;1271;68066;-78
2022/07/28 07:28:41;;;;;;;7.50;1.40;;;;;;;22.68;54.07;100088.66;105169;1271;73446;-76
2022/07/28 07:31:29;;;;;;;8.40;1.50;;;;;;;22.87;53.03;100089.31;105071;1271;59794;-76
2022/07/28 07:34:18;;;;;;;6.90;1.20;;;;;;;23.42;51.25;100088.00;105299;1272;61258;-77
2022/07/28 07:37:10;;;;;;;6.90;1.20;;;;;;;23.17;50.86;100091.44;105124;1274;72035;-76
2022/07/28 07:40:01;;;;;;;7.50;1.40;;;;;;;23.01;50.88;100091.19;105162;1271;66766;-79
2022/07/28 07:42:54;;;;;;;6.50;1.50;;;;;;;22.96;50.24;100098.80;105124;1271;74449;-76
2022/07/28 07:45:42;;;;;;;8.00;1.40;;;;;;;23.07;49.50;100099.63;105228;1271;59723;-76
2022/07/28 07:48:30;;;;;;;6.90;1.30;;;;;;;23.17;48.81;100100.70;105513;1271;59660;-76
2022/07/28 07:51:18;;;;;;;8.30;1.60;;;;;;;23.61;48.49;100099.54;105228;1271;74471;-77
2022/07/28 07:54:06;;;;;;;8.30;1.60;;;;;;;24.23;47.23;100101.20;105524;1271;67804;-76
2022/07/28 07:56:57;;;;;;;7.00;1.30;;;;;;;24.65;46.04;100104.23;105648;1271;72959;-76
2022/07/28 07:59:44;;;;;;;6.60;1.20;;;;;;;24.77;44.96;100113.77;105614;1271;59993;-78
2022/07/28 08:02:32;;;;;;;8.60;1.50;;;;;;;24.09;45.62;100114.09;105094;1271;61227;-78
2022/07/28 08:05:20;;;;;;;7.00;1.30;;;;;;;23.44;47.15;100118.61;105098;1271;71949;-77
2022/07/28 08:08:24;;;;;;;6.90;1.50;;;;;;;23.05;48.73;100117.23;105395;1271;67921;-76
2022/07/28 08:11:12;;;;;;;8.60;1.20;;;;;;;22.96;48.91;100117.34;105306;1271;72370;-76
2022/07/28 08:14:00;;;;;;;7.00;1.10;;;;;;;23.15;48.99;100119.21;105039;1271;59894;-75
2022/07/28 08:16:48;;;;;;;6.10;1.20;;;;;;;23.54;47.92;100120.83;105327;1271;59682;-75
2022/07/28 08:19:36;;;;;;;6.60;1.00;;;;;;;24.12;45.88;100122.85;105017;1271;74651;-76
2022/07/28 08:22:24;;;;;;;7.00;1.30;;;;;;;24.27;45.60;100125.38;105069;1271;68028;-74
2022/07/28 08:25:12;;;;;;;7.70;1.30;;;;;;;24.80;44.82;100124.13;105246;1271;73634;-77
2022/07/28 08:28:00;;;;;;;5.90;0.90;;;;;;;25.36;44.13;100125.14;105006;1271;59753;-75
2022/07/28 08:30:48;;;;;;;8.70;1.20;;;;;;;25.74;43.19;100128.75;105092;1271;62037;-74
2022/07/28 08:33:37;;;;;;;5.30;1.00;;;;;;;26.62;40.01;100124.82;105027;1271;73075;-74
2022/07/28 08:36:41;;;;;;;6.00;1.10;;;;;;;26.65;40.03;100124.78;104984;1274;69736;-76
2022/07/28 08:39:32;;;;;;;8.40;1.50;;;;;;;25.92;41.48;100133.95;105044;1271;71994;-76
2022/07/28 08:42:42;;;;;;;7.90;1.50;;;;;;;25.14;42.85;100140.56;105137;1271;59672;-78
2022/07/28 08:45:33;;;;;;;9.10;1.50;;;;;;;24.21;44.92;100141.29;105271;1271;61788;-76
2022/07/28 08:48:29;;;;;;;6.60;1.10;;;;;;;23.42;46.20;100146.51;105066;1271;74693;-79
2022/07/28 08:51:19;;;;;;;7.90;1.30;;;;;;;22.88;47.78;100146.48;105015;1271;66858;-75
2022/07/28 08:54:13;;;;;;;8.50;1.50;;;;;;;22.54;48.82;100146.88;105068;1271;72783;-75
2022/07/28 08:57:02;;;;;;;5.60;1.10;;;;;;;22.39;49.54;100148.86;105015;1273;59775;-77
2022/07/28 08:59:51;;;;;;;6.00;1.20;;;;;;;23.30;48.13;100144.21;105151;1271;59790;-77
2022/07/28 09:02:46;;;;;;;6.30;1.10;;;;;;;24.38;45.68;100145.55;106881;1271;74678;-74
2022/07/28 09:05:42;;;;;;;7.20;1.30;;;;;;;25.75;42.29;100140.36;107038;1271;68676;-75
2022/07/28 09:08:30;;;;;;;7.60;1.60;;;;;;;25.13;42.75;100156.89;107139;1271;71515;-78
2022/07/28 09:11:18;;;;;;;8.40;1.30;;;;;;;24.40;44.38;100158.27;106804;1271;59937;-79
2022/07/28 09:14:06;;;;;;;7.10;1.10;;;;;;;23.71;45.80;100162.19;106034;1274;61502;-80
2022/07/28 09:16:57;;;;;;;6.90;1.40;;;;;;;23.14;47.46;100166.48;106079;1273;72038;-80
2022/07/28 09:19:45;;;;;;;6.30;1.10;;;;;;;22.85;48.39;100169.54;106167;1273;66475;-78
2022/07/28 09:22:35;;;;;;;8.20;1.30;;;;;;;22.99;48.34;100168.63;105957;1274;71444;-79
2022/07/28 09:25:25;;;;;;;9.10;1.40;;;;;;;23.62;47.26;100167.03;105831;1274;59777;-79
2022/07/28 09:28:16;;;;;;;9.30;1.30;;;;;;;23.92;46.96;100163.61;105749;1274;59490;-80
2022/07/28 09:31:07;;;;;;;7.40;1.30;;;;;;;25.18;44.98;100162.39;106025;1274;71732;-79
2022/07/28 09:34:01;;;;;;;4.70;1.00;;;;;;;25.53;42.77;100168.33;106830;1273;69024;-80
2022/07/28 09:36:50;;;;;;;8.20;1.20;;;;;;;25.15;43.07;100176.41;106324;1274;73179;-78
2022/07/28 09:39:41;;;;;;;6.90;1.20;;;;;;;24.66;42.99;100171.14;106594;1274;61815;-80
2022/07/28 09:42:46;;;;;;;9.60;2.70;;;;;;;24.26;44.21;100179.21;106858;1273;60672;-76
2022/07/28 09:45:34;;;;;;;7.90;1.40;;;;;;;24.35;44.26;100175.75;106442;1274;72160;-77
2022/07/28 09:48:22;;;;;;;6.10;1.10;;;;;;;24.42;44.48;100172.33;106558;1273;66803;-78
2022/07/28 09:51:12;;;;;;;7.90;1.60;;;;;;;24.86;44.42;100172.65;106612;1273;71422;-77
2022/07/28 09:54:13;;;;;;;8.30;1.20;;;;;;;26.27;42.01;100168.52;106167;1273;59769;-77
2022/07/28 09:57:11;;;;;;;8.80;1.30;;;;;;;27.18;39.40;100168.27;106039;1273;60969;-78
2022/07/28 10:00:24;;;;;;;8.20;1.30;;;;;;;26.67;40.27;100178.17;106128;1273;73499;-78
2022/07/28 10:03:25;;;;;;;7.80;1.40;;;;;;;25.73;41.05;100192.40;106309;1273;68621;-80
2022/07/28 10:06:23;;;;;;;7.80;1.20;;;;;;;24.68;42.90;100187.87;106387;1273;73399;-79
2022/07/28 10:09:13;;;;;;;7.10;1.40;;;;;;;23.78;45.25;100197.65;105953;1273;59811;-80
2022/07/28 10:12:29;;;;;;;7.30;1.10;;;;;;;23.08;47.21;100196.92;106637;1273;59618;-78
2022/07/28 10:18:41;;;;;;;7.80;1.50;;;;;;;23.39;47.89;100201.01;106344;1273;67099;-79
2022/07/28 10:21:43;;;;;;;7.90;1.80;;;;;;;24.03;46.51;100202.87;107307;1274;72848;-79
2022/07/28 10:24:34;;;;;;;6.40;1.30;;;;;;;24.10;46.39;100201.97;106440;1273;59948;-77
2022/07/28 10:27:24;;;;;;;8.00;1.70;;;;;;;24.14;46.12;100197.83;106708;1273;62037;-80
2022/07/28 10:30:14;;;;;;;8.10;1.70;;;;;;;24.10;46.16;100202.27;106953;1273;71873;-80
2022/07/28 10:33:07;;;;;;;7.30;1.30;;;;;;;23.98;46.42;100209.33;106652;1273;68349;-78
2022/07/28 10:35:58;;;;;;;10.00;1.60;;;;;;;23.66;46.27;100196.00;107020;1274;73114;-80
2022/07/28 10:38:47;;;;;;;6.30;1.50;;;;;;;23.54;46.68;100207.73;106618;1274;59240;-79
2022/07/28 10:41:40;;;;;;;6.40;1.30;;;;;;;23.28;47.20;100210.52;106822;1273;59520;-78
2022/07/28 10:44:30;;;;;;;6.00;1.50;;;;;;;23.04;47.50;100209.91;106957;1274;71954;-80
2022/07/28 10:47:22;;;;;;;10.20;2.50;;;;;;;22.90;47.72;100206.80;107294;1274;66728;-77
2022/07/28 10:50:10;;;;;;;8.20;1.20;;;;;;;22.92;48.23;100210.27;106566;1273;71698;-80
2022/07/28 10:53:06;;;;;;;6.00;1.60;;;;;;;22.92;48.24;100214.59;106649;1273;59938;-78
2022/07/28 10:56:02;;;;;;;7.90;1.20;;;;;;;23.01;48.28;100215.26;106494;1274;59582;-77
2022/07/28 10:59:34;;;;;;;7.40;1.10;;;;;;;22.81;47.46;100220.86;106777;1273;73178;-78
2022/07/28 11:03:00;;;;;;;6.80;1.40;;;;;;;22.90;46.73;100220.15;106289;1274;68193;-79
2022/07/28 11:06:29;;;;;;;8.60;1.70;;;;;;;23.36;46.03;100222.76;106266;1274;74087;-78
2022/07/28 11:09:18;;;;;;;6.30;1.30;;;;;;;23.26;46.35;100226.79;106427;1274;59688;-74
2022/07/28 11:12:06;;;;;;;7.00;1.20;;;;;;;23.04;46.57;100230.23;105890;1271;61034;-75
2022/07/28 11:14:57;;;;;;;7.50;1.30;;;;;;;22.84;47.15;100233.84;105370;1271;73126;-74
2022/07/28 11:18:09;;;;;;;6.80;1.50;;;;;;;22.63;47.96;100229.98;105033;1271;67789;-76
2022/07/28 11:21:04;;;;;;;7.70;1.30;;;;;;;24.04;46.20;100223.44;104804;1273;73760;-75
2022/07/28 11:23:56;;;;;;;7.90;1.30;;;;;;;25.87;42.21;100214.00;105322;1271;59662;-75
2022/07/28 11:26:44;;;;;;;5.50;1.10;;;;;;;26.02;40.91;100218.86;105142;1271;61592;-76
2022/07/28 11:29:45;;;;;;;6.50;1.20;;;;;;;25.49;41.14;100215.30;105054;1273;73125;-76
2022/07/28 11:32:50;;;;;;;6.20;1.00;;;;;;;24.94;41.97;100227.45;105011;1273;66768;-73
2022/07/28 11:35:38;;;;;;;8.10;1.20;;;;;;;24.19;42.35;100227.20;105300;1271;73125;-76
2022/07/28 11:38:27;;;;;;;6.60;1.40;;;;;;;23.63;43.42;100229.17;105003;1271;59845;-75
2022/07/28 11:41:29;;;;;;;5.50;1.00;;;;;;;23.08;44.60;100227.95;105113;1271;61209;-72
2022/07/28 11:44:32;;;;;;;5.60;1.20;;;;;;;22.71;45.38;100230.51;105155;1271;74754;-73
2022/07/28 11:47:24;;;;;;;6.90;1.60;;;;;;;22.48;46.30;100236.67;105187;1272;68022;-76
2022/07/28 11:50:16;;;;;;;6.80;1.50;;;;;;;22.37;47.02;100238.95;105057;1271;72068;-74
2022/07/28 11:53:05;;;;;;;7.10;1.30;;;;;;;22.29;47.95;100245.55;105367;1271;59589;-74
2022/07/28 11:55:55;;;;;;;6.70;1.20;;;;;;;21.96;49.50;100246.45;105126;1271;62307;-74
2022/07/28 11:59:03;;;;;;;6.90;1.20;;;;;;;21.57;50.95;100253.48;105058;1272;73250;-74
2022/07/28 12:01:53;;;;;;;7.50;1.20;;;;;;;21.19;52.16;100256.20;105363;1271;69580;-73
2022/07/28 12:04:41;;;;;;;7.80;1.50;;;;;;;20.95;52.75;100255.10;104927;1273;73392;-76
2022/07/28 12:07:44;;;;;;;7.90;1.40;;;;;;;20.72;53.37;100260.63;105020;1271;59774;-72
2022/07/28 12:10:36;;;;;;;7.40;1.40;;;;;;;20.61;53.60;100262.70;105086;1271;59772;-76
2022/07/28 12:13:42;;;;;;;7.30;1.30;;;;;;;20.62;53.39;100259.16;105447;1271;74560;-76
2022/07/28 12:16:31;;;;;;;6.50;1.30;;;;;;;20.68;53.35;100260.91;105117;1271;66895;-75
2022/07/28 12:19:21;;;;;;;8.90;1.20;;;;;;;20.70;54.35;100267.17;107137;1271;73373;-73
2022/07/28 12:22:19;;;;;;;8.80;1.50;;;;;;;20.78;54.41;100274.29;106388;1271;59753;-75
2022/07/28 12:25:08;;;;;;;6.50;1.40;;;;;;;20.77;54.70;100276.14;106219;1271;59568;-76
2022/07/28 12:28:17;;;;;;;6.80;1.30;;;;;;;20.87;53.93;100276.64;106572;1271;73690;-74
2022/07/28 12:31:12;;;;;;;6.20;1.00;;;;;;;21.08;52.51;100275.79;105842;1271;66788;-75
2022/07/28 12:34:01;;;;;;;6.70;1.40;;;;;;;21.20;51.90;100280.13;105292;1271;73027;-75
2022/07/28 12:36:50;;;;;;;7.80;1.20;;;;;;;21.22;51.97;100276.19;105193;1271;59909;-76
2022/07/28 12:40:01;;;;;;;6.60;1.10;;;;;;;21.34;51.77;100275.70;105144;1271;60702;-77
2022/07/28 12:42:56;;;;;;;6.40;1.20;;;;;;;21.45;51.03;100271.70;105270;1271;74156;-76
2022/07/28 12:45:45;;;;;;;6.30;1.20;;;;;;;21.54;51.43;100277.31;104791;1274;69920;-76
2022/07/28 12:48:39;;;;;;;5.70;1.50;;;;;;;21.63;50.83;100276.45;105147;1274;74306;-75
2022/07/28 12:51:40;;;;;;;7.00;1.20;;;;;;;21.59;50.08;100280.66;104829;1274;59708;-77
2022/07/28 12:54:36;;;;;;;7.10;1.30;;;;;;;21.57;50.53;100285.73;104687;1274;60511;-76
2022/07/28 12:57:47;;;;;;;9.10;1.50;;;;;;;21.62;50.87;100284.14;104871;1274;71951;-75
2022/07/28 13:00:48;;;;;;;8.90;1.30;;;;;;;21.47;50.77;100288.05;105183;1274;66654;-75
2022/07/28 13:03:44;;;;;;;9.40;1.10;;;;;;;21.36;50.48;100284.31;104776;1274;74455;-76
2022/07/28 13:06:39;;;;;;;5.00;1.10;;;;;;;21.58;50.67;100287.18;104995;1274;60221;-75
2022/07/28 13:09:27;;;;;;;7.10;1.30;;;;;;;21.80;50.27;100281.63;104934;1274;61408;-75
2022/07/28 13:12:21;;;;;;;6.30;1.00;;;;;;;21.95;50.29;100291.70;105232;1274;72040;-75
2022/07/28 13:15:15;;;;;;;6.00;1.10;;;;;;;22.06;50.24;100290.89;104896;1274;69646;-75
2022/07/28 13:18:04;;;;;;;5.80;1.30;;;;;;;21.91;49.80;100291.27;104843;1274;72876;-77
2022/07/28 13:20:52;;;;;;;8.70;1.20;;;;;;;21.63;49.31;100292.73;104991;1274;59630;-75